Time,TemperatureF,DewpointF,PressureIn,WindDirection,WindDirectionDegrees,WindSpeedMPH,WindSpeedGustMPH,Humidity,HourlyPrecipIn,Conditions,Clouds,dailyrainin,SoftwareType,DateUTC
2013-08-18 00:11:00,60.9,55.0,30.09,South,191,2.0,3.0,80,0.00,,,0.00,weatherlink.com 1.10,2013-08-18 05:11:00,
2013-08-18 00:26:00,60.5,55.0,30.09,SSE,165,2.0,3.0,81,0.00,,,0.00,weatherlink.com 1.10,2013-08-18 05:26:00,
2013-08-18 00:41:00,60.4,55.0,30.09,South,187,2.0,4.0,81,0.00,,,0.00,weatherlink.com 1.10,2013-08-18 05:41:00,
2013-08-18 00:56:00,59.9,54.0,30.09,South,169,2.0,3.0,82,0.00,,,0.00,weatherlink.com 1.10,2013-08-18 05:56:00,
2013-08-18 01:11:00,59.4,54.0,30.09,SSE,161,3.0,3.0,83,0.00,,,0.00,weatherlink.com 1.10,2013-08-18 06:11:00,
2013-08-18 01:26:00,59.4,54.0,30.09,SW,217,1.0,4.0,82,0.00,,,0.00,weatherlink.com 1.10,2013-08-18 06:26:00,
2013-08-18 01:41:00,58.5,54.0,30.09,SSW,198,0.0,2.0,84,0.00,,,0.00,weatherlink.com 1.10,2013-08-18 06:41:00,
2013-08-18 01:56:00,57.9,54.0,30.09,SSW,198,0.0,0.0,85,0.00,,,0.00,weatherlink.com 1.10,2013-08-18 06:56:00,
2013-08-18 02:11:00,58.2,54.0,30.09,South,191,1.0,3.0,85,0.00,,,0.00,weatherlink.com 1.10,2013-08-18 07:11:00,
2013-08-18 02:26:00,58.0,54.0,30.09,South,184,2.0,3.0,86,0.00,,,0.00,weatherlink.com 1.10,2013-08-18 07:26:00,
2013-08-18 02:41:00,57.7,54.0,30.09,SSE,151,2.0,2.0,86,0.00,,,0.00,weatherlink.com 1.10,2013-08-18 07:41:00,
2013-08-18 02:57:00,57.7,54.0,30.09,SSE,149,2.0,3.0,86,0.00,,,0.00,weatherlink.com 1.10,2013-08-18 07:57:00,
2013-08-18 03:12:00,57.7,54.0,30.09,South,184,2.0,4.0,86,0.00,,,0.00,weatherlink.com 1.10,2013-08-18 08:12:00,
2013-08-18 03:27:00,57.4,53.0,30.08,SSE,167,3.0,4.0,86,0.00,,,0.00,weatherlink.com 1.10,2013-08-18 08:27:00,
2013-08-18 03:42:00,57.0,53.0,30.09,South,170,2.0,3.0,87,0.00,,,0.00,weatherlink.com 1.10,2013-08-18 08:42:00,
2013-08-18 03:57:00,56.6,53.0,30.09,South,185,1.0,2.0,88,0.00,,,0.00,weatherlink.com 1.10,2013-08-18 08:57:00,
2013-08-18 04:12:00,56.0,53.0,30.08,WSW,242,0.0,2.0,88,0.00,,,0.00,weatherlink.com 1.10,2013-08-18 09:12:00,
2013-08-18 04:27:00,54.3,52.0,30.08,WSW,242,0.0,0.0,91,0.00,,,0.00,weatherlink.com 1.10,2013-08-18 09:27:00,
2013-08-18 04:42:00,53.5,52.0,30.08,SSE,158,0.0,1.0,93,0.00,,,0.00,weatherlink.com 1.10,2013-08-18 09:42:00,
2013-08-18 04:57:00,53.6,51.0,30.08,SSE,158,0.0,1.0,92,0.00,,,0.00,weatherlink.com 1.10,2013-08-18 09:57:00,
2013-08-18 05:12:00,52.8,51.0,30.09,SSE,158,0.0,0.0,94,0.00,,,0.00,weatherlink.com 1.10,2013-08-18 10:12:00,
2013-08-18 05:27:00,52.4,51.0,30.10,SSW,198,0.0,1.0,94,0.00,,,0.00,weatherlink.com 1.10,2013-08-18 10:27:00,
2013-08-18 05:42:00,52.4,51.0,30.10,SE,136,1.0,2.0,93,0.00,,,0.00,weatherlink.com 1.10,2013-08-18 10:42:00,
2013-08-18 05:57:00,53.2,52.0,30.09,SE,131,2.0,3.0,94,0.00,,,0.00,weatherlink.com 1.10,2013-08-18 10:57:00,
2013-08-18 06:12:00,53.6,51.0,30.10,SE,133,1.0,3.0,92,0.00,,,0.00,weatherlink.com 1.10,2013-08-18 11:12:00,
2013-08-18 06:27:00,53.7,52.0,30.10,SSE,148,2.0,3.0,92,0.00,,,0.00,weatherlink.com 1.10,2013-08-18 11:27:00,
2013-08-18 06:42:00,53.5,51.0,30.10,SSW,196,1.0,1.0,92,0.00,,,0.00,weatherlink.com 1.10,2013-08-18 11:42:00,
2013-08-18 06:57:00,54.1,52.0,30.10,SSE,156,2.0,3.0,92,0.00,,,0.00,weatherlink.com 1.10,2013-08-18 11:57:00,
2013-08-18 07:12:00,55.4,52.0,30.10,South,181,1.0,4.0,88,0.00,,,0.00,weatherlink.com 1.10,2013-08-18 12:12:00,
2013-08-18 07:27:00,56.3,53.0,30.10,SW,217,2.0,3.0,87,0.00,,,0.00,weatherlink.com 1.10,2013-08-18 12:27:00,
2013-08-18 07:42:00,57.7,53.0,30.10,South,181,4.0,5.0,85,0.00,,,0.00,weatherlink.com 1.10,2013-08-18 12:42:00,
2013-08-18 07:57:00,59.2,55.0,30.10,SSW,194,3.0,5.0,85,0.00,,,0.00,weatherlink.com 1.10,2013-08-18 12:57:00,
2013-08-18 08:12:00,60.7,56.0,30.10,South,181,5.0,5.0,84,0.00,,,0.00,weatherlink.com 1.10,2013-08-18 13:12:00,
2013-08-18 08:27:00,62.6,57.0,30.10,SSE,156,4.0,7.0,81,0.00,,,0.00,weatherlink.com 1.10,2013-08-18 13:27:00,
2013-08-18 08:42:00,64.2,57.0,30.10,SSE,165,5.0,8.0,78,0.00,,,0.00,weatherlink.com 1.10,2013-08-18 13:42:00,
2013-08-18 08:57:00,66.0,58.0,30.09,SE,143,4.0,8.0,76,0.00,,,0.00,weatherlink.com 1.10,2013-08-18 13:57:00,
2013-08-18 09:12:00,67.2,58.0,30.09,SSE,160,6.0,11.0,72,0.00,,,0.00,weatherlink.com 1.10,2013-08-18 14:12:00,
2013-08-18 09:27:00,68.4,58.0,30.09,South,182,9.0,13.0,70,0.00,,,0.00,weatherlink.com 1.10,2013-08-18 14:27:00,
2013-08-18 09:42:00,69.2,59.0,30.09,SSW,195,10.0,12.0,69,0.00,,,0.00,weatherlink.com 1.10,2013-08-18 14:42:00,
2013-08-18 09:57:00,70.6,59.0,30.09,SSW,196,6.0,12.0,67,0.00,,,0.00,weatherlink.com 1.10,2013-08-18 14:57:00,
2013-08-18 10:13:00,71.6,57.0,30.09,South,190,10.0,16.0,61,0.00,,,0.00,weatherlink.com 1.10,2013-08-18 15:13:00,
2013-08-18 10:28:00,72.1,57.0,30.09,SSW,205,12.0,15.0,60,0.00,,,0.00,weatherlink.com 1.10,2013-08-18 15:28:00,
2013-08-18 10:43:00,72.8,57.0,30.09,WSW,243,8.0,16.0,58,0.00,,,0.00,weatherlink.com 1.10,2013-08-18 15:43:00,
2013-08-18 10:58:00,73.4,56.0,30.08,SSW,194,13.0,19.0,54,0.00,,,0.00,weatherlink.com 1.10,2013-08-18 15:58:00,
2013-08-18 11:13:00,73.9,57.0,30.08,SSW,203,9.0,17.0,55,0.00,,,0.00,weatherlink.com 1.10,2013-08-18 16:13:00,
2013-08-18 11:28:00,74.2,56.0,30.08,SSW,196,15.0,19.0,54,0.00,,,0.00,weatherlink.com 1.10,2013-08-18 16:28:00,
2013-08-18 11:43:00,74.3,55.0,30.07,South,186,12.0,22.0,52,0.00,,,0.00,weatherlink.com 1.10,2013-08-18 16:43:00,
2013-08-18 11:58:00,75.1,55.0,30.07,SSW,210,12.0,19.0,50,0.00,,,0.00,weatherlink.com 1.10,2013-08-18 16:58:00,
2013-08-18 12:13:00,75.1,56.0,30.07,SSW,198,16.0,18.0,51,0.00,,,0.00,weatherlink.com 1.10,2013-08-18 17:13:00,
2013-08-18 12:28:00,75.7,55.0,30.07,South,170,12.0,22.0,49,0.00,,,0.00,weatherlink.com 1.10,2013-08-18 17:28:00,
2013-08-18 12:43:00,76.1,54.0,30.06,South,190,12.0,21.0,46,0.00,,,0.00,weatherlink.com 1.10,2013-08-18 17:43:00,
2013-08-18 12:58:00,76.3,53.0,30.06,SSE,167,11.0,19.0,45,0.00,,,0.00,weatherlink.com 1.10,2013-08-18 17:58:00,
2013-08-18 13:13:00,76.1,54.0,30.05,SW,214,16.0,21.0,47,0.00,,,0.00,weatherlink.com 1.10,2013-08-18 18:13:00,
2013-08-18 13:28:00,76.3,55.0,30.05,SSW,194,13.0,21.0,48,0.00,,,0.00,weatherlink.com 1.10,2013-08-18 18:28:00,
2013-08-18 13:43:00,76.8,54.0,30.04,SSW,203,11.0,20.0,46,0.00,,,0.00,weatherlink.com 1.10,2013-08-18 18:43:00,
2013-08-18 13:58:00,76.6,54.0,30.03,SSW,203,10.0,23.0,46,0.00,,,0.00,weatherlink.com 1.10,2013-08-18 18:58:00,
2013-08-18 14:13:00,77.1,54.0,30.03,South,179,20.0,24.0,45,0.00,,,0.00,weatherlink.com 1.10,2013-08-18 19:13:00,
2013-08-18 14:28:00,77.1,54.0,30.04,SSE,153,17.0,20.0,45,0.00,,,0.00,weatherlink.com 1.10,2013-08-18 19:28:00,
2013-08-18 14:43:00,77.4,56.0,30.03,SSW,207,15.0,21.0,48,0.00,,,0.00,weatherlink.com 1.10,2013-08-18 19:43:00,
2013-08-18 14:58:00,77.5,55.0,30.03,South,181,12.0,21.0,46,0.00,,,0.00,weatherlink.com 1.10,2013-08-18 19:58:00,
2013-08-18 15:13:00,77.6,56.0,30.03,South,191,15.0,21.0,48,0.00,,,0.00,weatherlink.com 1.10,2013-08-18 20:13:00,
2013-08-18 15:28:00,77.6,56.0,30.03,South,191,10.0,22.0,47,0.00,,,0.00,weatherlink.com 1.10,2013-08-18 20:28:00,
2013-08-18 15:43:00,77.9,55.0,30.03,SSW,197,9.0,19.0,45,0.00,,,0.00,weatherlink.com 1.10,2013-08-18 20:43:00,
2013-08-18 15:58:00,77.8,55.0,30.03,South,188,13.0,18.0,45,0.00,,,0.00,weatherlink.com 1.10,2013-08-18 20:58:00,
2013-08-18 16:13:00,77.3,56.0,30.02,SSE,167,15.0,15.0,48,0.00,,,0.00,weatherlink.com 1.10,2013-08-18 21:13:00,
2013-08-18 16:28:00,77.9,56.0,30.01,SSW,204,9.0,17.0,47,0.00,,,0.00,weatherlink.com 1.10,2013-08-18 21:28:00,
2013-08-18 16:43:00,78.0,56.0,30.01,SSW,196,12.0,17.0,46,0.00,,,0.00,weatherlink.com 1.10,2013-08-18 21:43:00,
2013-08-18 16:58:00,77.9,56.0,30.00,SSE,155,17.0,19.0,47,0.00,,,0.00,weatherlink.com 1.10,2013-08-18 21:58:00,
2013-08-18 17:13:00,77.7,55.0,30.00,South,184,12.0,17.0,46,0.00,,,0.00,weatherlink.com 1.10,2013-08-18 22:13:00,
2013-08-18 17:28:00,77.4,56.0,30.00,South,169,12.0,17.0,47,0.00,,,0.00,weatherlink.com 1.10,2013-08-18 22:28:00,
2013-08-18 17:43:00,77.2,57.0,30.00,SSW,201,10.0,14.0,50,0.00,,,0.00,weatherlink.com 1.10,2013-08-18 22:43:00,
2013-08-18 17:58:00,77.1,57.0,30.01,SSW,194,8.0,15.0,50,0.00,,,0.00,weatherlink.com 1.10,2013-08-18 22:58:00,
2013-08-18 18:13:00,76.9,57.0,30.01,SSW,203,7.0,15.0,50,0.00,,,0.00,weatherlink.com 1.10,2013-08-18 23:13:00,
2013-08-18 18:28:00,76.4,57.0,30.00,SSW,199,5.0,13.0,52,0.00,,,0.00,weatherlink.com 1.10,2013-08-18 23:28:00,
2013-08-18 18:43:00,76.0,59.0,30.00,SSW,200,4.0,10.0,55,0.00,,,0.00,weatherlink.com 1.10,2013-08-18 23:43:00,
2013-08-18 18:59:00,75.4,58.0,30.00,WSW,255,4.0,11.0,55,0.00,,,0.00,weatherlink.com 1.10,2013-08-18 23:59:00,
2013-08-18 19:13:00,74.2,58.0,30.00,SW,217,7.0,9.0,58,0.00,,,0.00,weatherlink.com 1.10,2013-08-19 00:13:00,
2013-08-18 19:28:00,73.2,58.0,30.00,SSW,205,3.0,7.0,59,0.00,,,0.00,weatherlink.com 1.10,2013-08-19 00:28:00,
2013-08-18 19:43:00,72.0,58.0,29.99,SSW,201,3.0,7.0,62,0.00,,,0.00,weatherlink.com 1.10,2013-08-19 00:43:00,
2013-08-18 19:58:00,71.2,59.0,30.00,South,180,3.0,6.0,65,0.00,,,0.00,weatherlink.com 1.10,2013-08-19 00:58:00,
2013-08-18 20:13:00,70.4,58.0,29.99,SSE,158,5.0,7.0,66,0.00,,,0.00,weatherlink.com 1.10,2013-08-19 01:13:00,
2013-08-18 20:28:00,69.7,59.0,29.99,SSE,163,6.0,8.0,68,0.00,,,0.00,weatherlink.com 1.10,2013-08-19 01:28:00,
2013-08-18 20:44:00,69.2,59.0,29.99,SSW,194,5.0,11.0,69,0.00,,,0.00,weatherlink.com 1.10,2013-08-19 01:44:00,
2013-08-18 20:59:00,68.5,58.0,29.99,SSW,193,6.0,9.0,70,0.00,,,0.00,weatherlink.com 1.10,2013-08-19 01:59:00,
2013-08-18 21:14:00,67.8,58.0,30.00,SSW,200,6.0,7.0,72,0.00,,,0.00,weatherlink.com 1.10,2013-08-19 02:14:00,
2013-08-18 21:29:00,66.9,58.0,30.00,SSW,205,4.0,7.0,74,0.00,,,0.00,weatherlink.com 1.10,2013-08-19 02:29:00,
2013-08-18 21:44:00,66.3,58.0,30.00,SW,218,6.0,9.0,75,0.00,,,0.00,weatherlink.com 1.10,2013-08-19 02:44:00,
2013-08-18 21:59:00,65.9,58.0,30.00,SSW,204,5.0,7.0,76,0.00,,,0.00,weatherlink.com 1.10,2013-08-19 02:59:00,
2013-08-18 22:14:00,65.1,58.0,29.99,South,191,5.0,6.0,78,0.00,,,0.00,weatherlink.com 1.10,2013-08-19 03:14:00,
2013-08-18 22:29:00,64.8,58.0,29.99,SSW,204,5.0,8.0,79,0.00,,,0.00,weatherlink.com 1.10,2013-08-19 03:29:00,
2013-08-18 22:44:00,65.1,58.0,29.99,SSW,212,6.0,9.0,78,0.00,,,0.00,weatherlink.com 1.10,2013-08-19 03:44:00,
2013-08-18 22:59:00,64.4,58.0,29.99,SSW,198,6.0,7.0,80,0.00,,,0.00,weatherlink.com 1.10,2013-08-19 03:59:00,
2013-08-18 23:14:00,63.6,58.0,29.99,South,189,4.0,6.0,82,0.00,,,0.00,weatherlink.com 1.10,2013-08-19 04:14:00,
2013-08-18 23:29:00,63.7,58.0,29.99,SSW,196,7.0,10.0,82,0.00,,,0.00,weatherlink.com 1.10,2013-08-19 04:29:00,
2013-08-18 23:44:00,63.9,58.0,29.99,SSW,193,8.0,13.0,82,0.00,,,0.00,weatherlink.com 1.10,2013-08-19 04:44:00,
2013-08-18 23:59:00,63.9,58.0,29.99,SSE,162,5.0,10.0,82,0.00,,,0.00,weatherlink.com 1.10,2013-08-19 04:59:00,